Pagrindinis puslapis
METAR-TAF:

METAR-TAF

Oro uostai :

Zagrebas, Kroatija

platuma: 45-44N, ilguma: 016-04E, Aukštis: 106 m

Dabartinis oras

Ataskaita buvo paskelbta 31 minutes, ne 23:30 UTC
Vėjas 1 kt iš Vakarų
Temperatūra 2°C
Drėgmė 64%
Slėgis 1031 hPa
Matomumas 10 km arba daugiau
nėra debesų žemiau 1500 m ir nėra kamuolinių lietaus debesų

METAR: LDZA 072330Z 26001KT CAVOK 02/M04 Q1031 NOSIG

Laikas: 02:01 (00:01 UTC)

Prognozė

Ataskaita buvo paskelbta 36 minutes, ne 23:25 UTC
Prognozė galioja nuo 08 metu 00 UTC su 09 metu 00 UTC
Vėjas 2 kt nuo kintamojo kryptimis
Matomumas 10 km arba daugiau
nėra debesų žemiau 1500 m ir nėra kamuolinių lietaus debesų
Tapsmas
nuo 08 metu 07 UTC su 08 metu 09 UTC
Vėjas 8 kt iš Šiaurės Rytų
Tapsmas
nuo 08 metu 16 UTC su 08 metu 18 UTC
Vėjas 2 kt nuo kintamojo kryptimis

TAF: LDZA 072325Z 0800/0900 VRB02KT CAVOK TX20/0813Z TN00/0804Z BECMG 0807/0809 04008KT BECMG 0816/0818 VRB02KT

Orai ataskaitas ir orų prognozės (METAR, TAF).

turimą stotys yra geltonos ir raudonos taškus žemėlapyje.

Perkelti pele per norėdami pamatyti stoties vardą.

Tada spustelėkite, norėdami matyti oro stebėjimo ir prognozės.

Norėdami pakeisti žemėlapį: spustelėkite ant žalios mygtukų su juodo kryžiaus žemyn,; žalią mygtuką su brūkšneliu, jei norite nutolinti; arba žalių rodyklių gretimoms žemėlapius.


METAR-TAF: